createdAt,value
2023-04-20T00:00:18.743Z,933.00
2023-04-20T00:01:18.736Z,949.00
2023-04-20T00:02:18.793Z,942.00
2023-04-20T00:03:18.890Z,951.00
2023-04-20T00:04:18.742Z,957.00
2023-04-20T00:05:18.808Z,945.00
2023-04-20T00:06:18.755Z,950.00
2023-04-20T00:07:18.714Z,935.00
2023-04-20T00:08:18.753Z,936.00
2023-04-20T00:09:18.974Z,941.00
2023-04-20T00:10:18.717Z,935.00
2023-04-20T00:11:18.754Z,940.00
2023-04-20T00:12:18.759Z,940.00
2023-04-20T00:13:18.823Z,931.00
2023-04-20T00:14:18.849Z,939.00
2023-04-20T00:15:18.901Z,937.00
2023-04-20T00:16:18.996Z,950.00
2023-04-20T00:17:19.021Z,960.00
2023-04-20T00:18:19.035Z,945.00
2023-04-20T00:19:19.286Z,941.00
2023-04-20T00:20:19.114Z,964.00
2023-04-20T00:21:19.159Z,937.00
2023-04-20T00:22:19.235Z,931.00
2023-04-20T00:23:19.251Z,921.00
2023-04-20T00:24:19.300Z,935.00
2023-04-20T00:25:19.344Z,934.00
2023-04-20T00:26:19.389Z,943.00
2023-04-20T00:27:19.454Z,929.00
2023-04-20T00:28:19.541Z,926.00
2023-04-20T00:29:19.636Z,929.00
2023-04-20T00:30:19.560Z,934.00
2023-04-20T00:31:19.648Z,957.00
2023-04-20T00:32:19.639Z,931.00
2023-04-20T00:33:19.715Z,922.00
2023-04-20T00:34:19.729Z,915.00
2023-04-20T00:35:19.790Z,910.00
2023-04-20T00:36:19.818Z,908.00
2023-04-20T00:37:19.871Z,912.00
2023-04-20T00:38:19.922Z,926.00
2023-04-20T00:39:19.961Z,929.00
2023-04-20T00:40:19.995Z,926.00
2023-04-20T00:41:20.069Z,912.00
2023-04-20T00:42:20.089Z,916.00
2023-04-20T00:43:20.135Z,922.00
2023-04-20T00:44:20.206Z,917.00
2023-04-20T00:45:20.243Z,929.00
2023-04-20T00:46:20.317Z,934.00
2023-04-20T00:47:20.335Z,930.00
2023-04-20T00:48:20.379Z,927.00
2023-04-20T00:49:20.418Z,911.00
2023-04-20T00:50:20.470Z,904.00
2023-04-20T00:51:20.518Z,895.00
2023-04-20T00:52:20.563Z,894.00
2023-04-20T00:53:20.624Z,897.00
2023-04-20T00:54:20.683Z,920.00
2023-04-20T00:55:20.707Z,931.00
2023-04-20T00:56:20.754Z,926.00
2023-04-20T00:57:20.784Z,925.00
2023-04-20T00:58:20.844Z,924.00
2023-04-20T00:59:20.871Z,925.00
2023-04-20T01:00:20.925Z,948.00
2023-04-20T01:01:21.039Z,930.00
2023-04-20T01:02:21.118Z,936.00
2023-04-20T01:03:21.133Z,952.00
2023-04-20T01:04:21.248Z,932.00
2023-04-20T01:05:21.163Z,914.00
2023-04-20T01:06:21.223Z,919.00
2023-04-20T01:07:21.260Z,936.00
2023-04-20T01:08:21.307Z,920.00
2023-04-20T01:09:21.338Z,911.00
2023-04-20T01:10:21.337Z,911.00
2023-04-20T01:11:21.328Z,915.00
2023-04-20T01:12:21.353Z,904.00
2023-04-20T01:13:21.335Z,905.00
2023-04-20T01:14:21.330Z,887.00
2023-04-20T01:15:21.324Z,893.00
2023-04-20T01:16:21.370Z,897.00
2023-04-20T01:17:21.361Z,907.00
2023-04-20T01:18:21.325Z,904.00
2023-04-20T01:19:21.315Z,910.00
2023-04-20T01:20:21.314Z,899.00
2023-04-20T01:21:21.364Z,916.00
2023-04-20T01:22:21.444Z,904.00
2023-04-20T01:23:21.443Z,888.00
2023-04-20T01:24:21.518Z,890.00
2023-04-20T01:25:21.533Z,894.00
2023-04-20T01:26:21.561Z,903.00
2023-04-20T01:27:21.596Z,903.00
2023-04-20T01:28:21.654Z,891.00
2023-04-20T01:29:21.693Z,909.00
2023-04-20T01:30:21.737Z,900.00
2023-04-20T01:31:21.797Z,910.00
2023-04-20T01:32:21.843Z,899.00
2023-04-20T01:33:21.756Z,899.00
2023-04-20T01:34:21.759Z,882.00
2023-04-20T01:35:21.760Z,886.00
2023-04-20T01:36:21.808Z,887.00
2023-04-20T01:37:21.841Z,876.00
2023-04-20T01:38:21.840Z,876.00
2023-04-20T01:39:21.872Z,877.00
2023-04-20T01:40:21.817Z,881.00
2023-04-20T01:41:21.826Z,897.00
2023-04-20T01:42:21.881Z,930.00
2023-04-20T01:43:21.832Z,919.00
2023-04-20T01:44:21.822Z,901.00
2023-04-20T01:45:21.821Z,913.00
2023-04-20T01:46:21.847Z,910.00
2023-04-20T01:47:21.809Z,908.00
2023-04-20T01:48:21.805Z,893.00
2023-04-20T01:49:21.900Z,888.00
2023-04-20T01:50:21.922Z,889.00
2023-04-20T01:51:21.959Z,878.00
2023-04-20T01:52:22.005Z,877.00
2023-04-20T01:53:22.096Z,878.00
2023-04-20T01:54:22.102Z,865.00
2023-04-20T01:55:22.168Z,869.00
2023-04-20T01:56:22.214Z,861.00
2023-04-20T01:57:22.239Z,834.00
2023-04-20T01:58:22.345Z,847.00
2023-04-20T01:59:22.349Z,830.00
2023-04-20T02:00:22.408Z,837.00
2023-04-20T02:01:22.516Z,844.00
2023-04-20T02:02:22.619Z,850.00
2023-04-20T02:03:22.688Z,847.00
2023-04-20T02:04:22.588Z,837.00
2023-04-20T02:05:22.622Z,820.00
2023-04-20T02:06:22.670Z,835.00
2023-04-20T02:07:22.726Z,826.00
2023-04-20T02:08:22.783Z,819.00
2023-04-20T02:09:22.818Z,825.00
2023-04-20T02:10:22.846Z,827.00
2023-04-20T02:11:22.893Z,838.00
2023-04-20T02:12:22.937Z,844.00
2023-04-20T02:13:23.011Z,853.00
2023-04-20T02:14:23.040Z,834.00
2023-04-20T02:15:23.093Z,816.00
2023-04-20T02:16:23.081Z,816.00
2023-04-20T02:17:23.206Z,817.00
2023-04-20T02:18:23.095Z,824.00
2023-04-20T02:19:23.078Z,835.00
2023-04-20T02:20:23.074Z,823.00
2023-04-20T02:21:23.069Z,833.00
2023-04-20T02:22:23.078Z,840.00
2023-04-20T02:23:23.749Z,831.00
2023-04-20T02:24:23.065Z,841.00
2023-04-20T02:25:23.064Z,828.00
2023-04-20T02:26:23.108Z,839.00
2023-04-20T02:27:23.130Z,806.00
2023-04-20T02:28:23.166Z,797.00
2023-04-20T02:29:23.216Z,814.00
2023-04-20T02:30:23.267Z,814.00
2023-04-20T02:31:23.312Z,812.00
2023-04-20T02:32:23.358Z,808.00
2023-04-20T02:33:23.386Z,809.00
2023-04-20T02:34:23.423Z,828.00
2023-04-20T02:35:23.461Z,828.00
2023-04-20T02:36:23.454Z,825.00
2023-04-20T02:37:23.456Z,804.00
2023-04-20T02:38:23.515Z,829.00
2023-04-20T02:39:23.457Z,821.00
2023-04-20T02:40:23.463Z,835.00
2023-04-20T02:41:23.464Z,817.00
2023-04-20T02:42:23.446Z,826.00
2023-04-20T02:43:23.454Z,818.00
2023-04-20T02:44:23.450Z,820.00
2023-04-20T02:45:23.454Z,808.00
2023-04-20T02:46:23.488Z,811.00
2023-04-20T02:47:23.551Z,808.00
2023-04-20T02:48:23.505Z,808.00
2023-04-20T02:49:23.534Z,800.00
2023-04-20T02:50:23.552Z,791.00
2023-04-20T02:51:23.564Z,821.00
2023-04-20T02:52:23.602Z,803.00
2023-04-20T02:53:23.658Z,797.00
2023-04-20T02:54:23.677Z,802.00
2023-04-20T02:55:23.732Z,799.00
2023-04-20T02:56:23.762Z,813.00
2023-04-20T02:57:23.795Z,821.00
2023-04-20T02:58:23.907Z,813.00
2023-04-20T02:59:23.899Z,807.00
2023-04-20T03:00:23.938Z,818.00
2023-04-20T03:01:24.038Z,826.00
2023-04-20T03:02:24.239Z,827.00
2023-04-20T03:03:24.190Z,808.00
2023-04-20T03:04:24.326Z,805.00
2023-04-20T03:05:24.193Z,819.00
2023-04-20T03:06:24.213Z,822.00
2023-04-20T03:07:24.256Z,810.00
2023-04-20T03:08:24.334Z,778.00
2023-04-20T03:09:24.346Z,791.00
2023-04-20T03:10:24.390Z,784.00
2023-04-20T03:11:24.440Z,789.00
2023-04-20T03:12:24.480Z,794.00
2023-04-20T03:13:24.527Z,799.00
2023-04-20T03:14:24.577Z,795.00
2023-04-20T03:15:24.627Z,826.00
2023-04-20T03:16:24.754Z,812.00
2023-04-20T03:17:24.755Z,821.00
2023-04-20T03:18:24.739Z,812.00
2023-04-20T03:19:24.804Z,825.00
2023-04-20T03:20:24.829Z,804.00
2023-04-20T03:21:24.870Z,805.00
2023-04-20T03:22:24.916Z,797.00
2023-04-20T03:23:24.969Z,792.00
2023-04-20T03:24:25.004Z,794.00
2023-04-20T03:25:25.056Z,781.00
2023-04-20T03:26:25.122Z,788.00
2023-04-20T03:27:25.163Z,783.00
2023-04-20T03:28:25.205Z,786.00
2023-04-20T03:29:25.244Z,806.00
2023-04-20T03:30:25.292Z,803.00
2023-04-20T03:31:25.365Z,799.00
2023-04-20T03:32:25.401Z,791.00
2023-04-20T03:33:25.420Z,798.00
2023-04-20T03:34:25.457Z,787.00
2023-04-20T03:35:25.494Z,786.00
2023-04-20T03:36:25.536Z,802.00
2023-04-20T03:37:25.581Z,792.00
2023-04-20T03:38:25.630Z,799.00
2023-04-20T03:39:25.655Z,774.00
2023-04-20T03:40:25.709Z,787.00
2023-04-20T03:41:25.702Z,809.00
2023-04-20T03:42:25.714Z,825.00
2023-04-20T03:43:25.716Z,789.00
2023-04-20T03:44:25.719Z,788.00
2023-04-20T03:45:25.713Z,787.00
2023-04-20T03:46:25.811Z,786.00
2023-04-20T03:47:25.826Z,798.00
2023-04-20T03:48:25.839Z,788.00
2023-04-20T03:49:25.866Z,797.00
2023-04-20T03:50:25.915Z,787.00
2023-04-20T03:51:25.947Z,813.00
2023-04-20T03:52:26.004Z,792.00
2023-04-20T03:53:26.056Z,807.00
2023-04-20T03:54:26.088Z,821.00
2023-04-20T03:55:26.096Z,831.00
2023-04-20T03:56:26.095Z,824.00
2023-04-20T03:57:26.102Z,819.00
2023-04-20T03:58:26.150Z,824.00
2023-04-20T03:59:26.121Z,822.00
2023-04-20T04:00:26.113Z,826.00
2023-04-20T04:01:26.119Z,830.00
2023-04-20T04:02:26.244Z,819.00
2023-04-20T04:03:26.284Z,820.00
2023-04-20T04:04:26.554Z,836.00
2023-04-20T04:05:26.243Z,825.00
2023-04-20T04:06:26.104Z,838.00
2023-04-20T04:07:26.125Z,819.00
2023-04-20T04:08:26.138Z,837.00
2023-04-20T04:09:26.106Z,828.00
2023-04-20T04:10:26.141Z,820.00
2023-04-20T04:11:26.172Z,828.00
2023-04-20T04:12:26.214Z,839.00
2023-04-20T04:13:26.226Z,836.00
2023-04-20T04:14:26.207Z,838.00
2023-04-20T04:15:26.204Z,833.00
2023-04-20T04:16:26.240Z,828.00
2023-04-20T04:17:26.224Z,822.00
2023-04-20T04:18:26.175Z,835.00
2023-04-20T04:19:26.164Z,848.00
2023-04-20T04:20:26.175Z,844.00
2023-04-20T04:21:26.154Z,833.00
2023-04-20T04:22:26.780Z,823.00
2023-04-20T04:23:26.159Z,852.00
2023-04-20T04:24:26.199Z,844.00
2023-04-20T04:25:26.269Z,864.00
2023-04-20T04:26:26.301Z,854.00
2023-04-20T04:27:26.387Z,848.00
2023-04-20T04:28:26.423Z,852.00
2023-04-20T04:29:26.448Z,860.00
2023-04-20T04:30:26.502Z,872.00
2023-04-20T04:31:26.618Z,882.00
2023-04-20T04:32:26.609Z,880.00
2023-04-20T04:33:26.652Z,863.00
2023-04-20T04:34:26.695Z,866.00
2023-04-20T04:35:26.770Z,870.00
2023-04-20T04:36:26.812Z,877.00
2023-04-20T04:37:26.828Z,886.00
2023-04-20T04:38:26.901Z,874.00
2023-04-20T04:39:26.904Z,889.00
2023-04-20T04:40:26.948Z,893.00
2023-04-20T04:41:26.988Z,885.00
2023-04-20T04:42:27.019Z,891.00
2023-04-20T04:43:27.073Z,922.00
2023-04-20T04:44:27.118Z,923.00
2023-04-20T04:45:27.160Z,920.00
2023-04-20T04:46:27.374Z,916.00
2023-04-20T04:47:27.333Z,928.00
2023-04-20T04:48:27.301Z,926.00
2023-04-20T04:49:27.358Z,942.00
2023-04-20T04:50:27.406Z,917.00
2023-04-20T04:51:27.486Z,947.00
2023-04-20T04:52:27.511Z,935.00
2023-04-20T04:53:27.566Z,944.00
2023-04-20T04:54:27.621Z,948.00
2023-04-20T04:55:27.613Z,956.00
2023-04-20T04:56:27.626Z,946.00
2023-04-20T04:57:27.660Z,968.00
2023-04-20T04:58:27.855Z,972.00
2023-04-20T04:59:27.754Z,943.00
2023-04-20T05:00:27.828Z,955.00
2023-04-20T05:01:27.891Z,949.00
2023-04-20T05:02:28.138Z,957.00
2023-04-20T05:03:28.128Z,959.00
2023-04-20T05:04:28.083Z,971.00
2023-04-20T05:05:28.076Z,967.00
2023-04-20T05:06:28.145Z,975.00
2023-04-20T05:07:28.187Z,983.00
2023-04-20T05:08:28.282Z,984.00
2023-04-20T05:09:28.165Z,974.00
2023-04-20T05:10:28.245Z,983.00
2023-04-20T05:11:28.184Z,980.00
2023-04-20T05:12:28.160Z,990.00
2023-04-20T05:13:28.466Z,991.00
2023-04-20T05:14:28.152Z,1008.00
2023-04-20T05:15:28.253Z,989.00
2023-04-20T05:16:28.213Z,993.00
2023-04-20T05:17:28.272Z,995.00
2023-04-20T05:18:28.168Z,999.00
2023-04-20T05:19:28.218Z,1002.00
2023-04-20T05:20:28.221Z,1021.00
2023-04-20T05:21:28.854Z,1006.00
2023-04-20T05:22:28.302Z,1016.00
2023-04-20T05:23:28.361Z,1013.00
2023-04-20T05:24:28.403Z,1017.00
2023-04-20T05:25:28.418Z,1015.00
2023-04-20T05:26:28.540Z,1017.00
2023-04-20T05:27:28.500Z,1023.00
2023-04-20T05:28:28.593Z,1006.00
2023-04-20T05:29:28.613Z,1011.00
2023-04-20T05:30:28.662Z,1013.00
2023-04-20T05:31:28.660Z,1013.00
2023-04-20T05:32:28.739Z,1002.00
2023-04-20T05:33:28.741Z,1003.00
2023-04-20T05:34:28.663Z,1006.00
2023-04-20T05:35:28.650Z,998.00
2023-04-20T05:36:28.666Z,1005.00
2023-04-20T05:37:28.638Z,997.00
2023-04-20T05:38:28.645Z,1004.00
2023-04-20T05:39:28.655Z,1017.00
2023-04-20T05:40:28.697Z,989.00
2023-04-20T05:41:28.743Z,1016.00
2023-04-20T05:42:28.774Z,1021.00
2023-04-20T05:43:28.829Z,1000.00
2023-04-20T05:44:28.905Z,987.00
2023-04-20T05:45:28.923Z,999.00
2023-04-20T05:46:29.110Z,999.00
2023-04-20T05:47:29.164Z,983.00
2023-04-20T05:48:30.001Z,996.00
2023-04-20T05:49:29.103Z,1003.00
2023-04-20T05:50:29.158Z,1007.00
2023-04-20T05:51:29.202Z,1023.00
2023-04-20T05:52:29.257Z,1019.00
2023-04-20T05:53:29.308Z,1007.00
2023-04-20T05:54:29.420Z,1012.00
2023-04-20T05:55:29.385Z,1015.00
2023-04-20T05:56:29.437Z,1022.00
2023-04-20T05:57:29.551Z,1020.00
2023-04-20T05:58:29.514Z,1009.00
2023-04-20T05:59:29.572Z,1003.00
2023-04-20T06:00:29.606Z,1013.00
2023-04-20T06:01:29.697Z,1000.00
2023-04-20T06:02:29.855Z,1021.00
2023-04-20T06:03:29.963Z,1012.00
2023-04-20T06:04:30.041Z,1000.00
2023-04-20T06:05:30.029Z,1003.00
2023-04-20T06:06:29.900Z,996.00
2023-04-20T06:07:29.946Z,1005.00
2023-04-20T06:08:29.990Z,1005.00
2023-04-20T06:09:30.019Z,1000.00
2023-04-20T06:10:30.063Z,1004.00
2023-04-20T06:11:30.120Z,1023.00
2023-04-20T06:12:30.161Z,1019.00
2023-04-20T06:13:30.201Z,1020.00
2023-04-20T06:14:30.299Z,1007.00
2023-04-20T06:15:30.309Z,1009.00
2023-04-20T06:16:30.523Z,997.00
2023-04-20T06:17:30.452Z,999.00
2023-04-20T06:18:30.484Z,1020.00
2023-04-20T06:19:30.560Z,1009.00
2023-04-20T06:20:30.541Z,1014.00
2023-04-20T06:21:30.607Z,1015.00
2023-04-20T06:22:30.553Z,1017.00
2023-04-20T06:23:30.543Z,1022.00
2023-04-20T06:24:30.524Z,1026.00
2023-04-20T06:25:30.521Z,1031.00
2023-04-20T06:26:30.539Z,1043.00
2023-04-20T06:27:30.525Z,1025.00
2023-04-20T06:28:30.556Z,1047.00
2023-04-20T06:29:30.511Z,1042.00
2023-04-20T06:30:30.500Z,1059.00
2023-04-20T06:31:30.603Z,1065.00
2023-04-20T06:32:30.582Z,1081.00
2023-04-20T06:33:30.652Z,1074.00
2023-04-20T06:34:30.720Z,1082.00
2023-04-20T06:35:30.760Z,1083.00
2023-04-20T06:36:30.822Z,1086.00
2023-04-20T06:37:30.791Z,1084.00
2023-04-20T06:38:30.860Z,1100.00
2023-04-20T06:39:30.865Z,1096.00
2023-04-20T06:40:30.915Z,1104.00
2023-04-20T06:41:30.974Z,1107.00
2023-04-20T06:42:31.041Z,1127.00
2023-04-20T06:43:31.081Z,1117.00
2023-04-20T06:44:31.110Z,1139.00
2023-04-20T06:45:32.864Z,1140.00
2023-04-20T06:46:31.206Z,1139.00
2023-04-20T06:47:31.280Z,1151.00
2023-04-20T06:48:32.700Z,1152.00
2023-04-20T06:49:31.150Z,1146.00
2023-04-20T06:50:31.170Z,1155.00
2023-04-20T06:51:31.155Z,1157.00
2023-04-20T06:52:31.131Z,1159.00
2023-04-20T06:53:31.128Z,1173.00
2023-04-20T06:54:31.149Z,1153.00
2023-04-20T06:55:31.133Z,1154.00
2023-04-20T06:56:31.160Z,1160.00
2023-04-20T06:57:31.120Z,1168.00
2023-04-20T06:58:31.405Z,1169.00
2023-04-20T06:59:31.133Z,1181.00
2023-04-20T07:00:31.134Z,1168.00
2023-04-20T07:01:31.142Z,1176.00
2023-04-20T07:02:31.179Z,1182.00
2023-04-20T07:03:31.450Z,1191.00
2023-04-20T07:04:31.193Z,1186.00
2023-04-20T07:05:31.152Z,1180.00
2023-04-20T07:06:31.108Z,1177.00
2023-04-20T07:07:31.236Z,1184.00
2023-04-20T07:08:31.130Z,1173.00
2023-04-20T07:09:31.186Z,1183.00
2023-04-20T07:10:31.238Z,1173.00
2023-04-20T07:11:31.306Z,1184.00
2023-04-20T07:12:31.285Z,1184.00
2023-04-20T07:13:33.461Z,1181.00
2023-04-20T07:14:31.273Z,1185.00
2023-04-20T07:15:31.305Z,1186.00
2023-04-20T07:16:31.290Z,1187.00
2023-04-20T07:17:31.271Z,1187.00
2023-04-20T07:18:32.367Z,1172.00
2023-04-20T07:19:31.238Z,1180.00
2023-04-20T07:20:31.227Z,1177.00
2023-04-20T07:21:31.220Z,1185.00
2023-04-20T07:22:31.221Z,1172.00
2023-04-20T07:23:31.217Z,1176.00
2023-04-20T07:24:31.211Z,1168.00
2023-04-20T07:25:31.228Z,1172.00
2023-04-20T07:26:31.340Z,1176.00
2023-04-20T07:27:31.192Z,1176.00
2023-04-20T07:28:31.369Z,1169.00
2023-04-20T07:29:33.440Z,1166.00
2023-04-20T07:30:31.180Z,1170.00
2023-04-20T07:31:32.906Z,1158.00
2023-04-20T07:32:31.174Z,1176.00
2023-04-20T07:33:31.171Z,1177.00
2023-04-20T07:34:31.153Z,1179.00
2023-04-20T07:35:31.144Z,1185.00
2023-04-20T07:36:31.126Z,1183.00
2023-04-20T07:37:31.110Z,1180.00
2023-04-20T07:38:31.113Z,1180.00
2023-04-20T07:39:31.112Z,1180.00
2023-04-20T07:40:31.113Z,1188.00
2023-04-20T07:41:31.139Z,1196.00
2023-04-20T07:42:31.118Z,1188.00
2023-04-20T07:43:31.125Z,1187.00
2023-04-20T07:44:31.137Z,1195.00
2023-04-20T07:45:31.108Z,1196.00
2023-04-20T07:46:31.118Z,1203.00
2023-04-20T07:47:31.105Z,1205.00
2023-04-20T07:48:31.088Z,1191.00
2023-04-20T07:49:31.093Z,1203.00
2023-04-20T07:50:31.089Z,1194.00
2023-04-20T07:51:31.069Z,1188.00
2023-04-20T07:52:31.146Z,1200.00
2023-04-20T07:53:31.103Z,1194.00
2023-04-20T07:54:31.122Z,1204.00
2023-04-20T07:55:31.070Z,1200.00
2023-04-20T07:56:31.126Z,1198.00
2023-04-20T07:57:31.069Z,1213.00
2023-04-20T07:58:31.042Z,1201.00
2023-04-20T07:59:31.081Z,1191.00
2023-04-20T08:00:31.051Z,1203.00
2023-04-20T08:01:31.044Z,1193.00
2023-04-20T08:02:31.170Z,1197.00
2023-04-20T08:03:31.200Z,1209.00
2023-04-20T08:04:31.371Z,1213.00
2023-04-20T08:05:31.381Z,1214.00
2023-04-20T08:06:30.992Z,1219.00
2023-04-20T08:07:31.000Z,1215.00
2023-04-20T08:08:31.012Z,1217.00
2023-04-20T08:09:31.062Z,1214.00
2023-04-20T08:10:30.964Z,1224.00
2023-04-20T08:11:30.978Z,1234.00
2023-04-20T08:12:31.077Z,1223.00
2023-04-20T08:13:30.959Z,1227.00
2023-04-20T08:14:30.967Z,1234.00
2023-04-20T08:15:31.559Z,1227.00
2023-04-20T08:16:31.065Z,1229.00
2023-04-20T08:17:30.958Z,1229.00
2023-04-20T08:18:30.972Z,1230.00
2023-04-20T08:19:30.936Z,1224.00
2023-04-20T08:20:30.911Z,1225.00
2023-04-20T08:21:30.906Z,1238.00
2023-04-20T08:22:31.157Z,1244.00
2023-04-20T08:23:30.904Z,1242.00
2023-04-20T08:24:30.878Z,1228.00
2023-04-20T08:25:30.941Z,1227.00
2023-04-20T08:26:30.924Z,1202.00
2023-04-20T08:27:30.849Z,1211.00
2023-04-20T08:28:33.770Z,1208.00
2023-04-20T08:29:30.939Z,1216.00
2023-04-20T08:30:30.896Z,1220.00
2023-04-20T08:31:30.884Z,1218.00
2023-04-20T08:32:30.838Z,1223.00
2023-04-20T08:33:30.912Z,1241.00
2023-04-20T08:34:30.836Z,1242.00
2023-04-20T08:35:30.828Z,1244.00
2023-04-20T08:36:30.807Z,1249.00
2023-04-20T08:37:32.716Z,1254.00
2023-04-20T08:38:34.154Z,1279.00
2023-04-20T08:39:30.796Z,1301.00
2023-04-20T08:40:30.797Z,1326.00
2023-04-20T08:41:30.750Z,1329.00
2023-04-20T08:42:30.733Z,1331.00
2023-04-20T08:43:30.750Z,1353.00
2023-04-20T08:44:30.713Z,1346.00
2023-04-20T08:45:30.739Z,1351.00
2023-04-20T08:46:30.910Z,1360.00
2023-04-20T08:47:30.698Z,1364.00
2023-04-20T08:48:32.402Z,1366.00
2023-04-20T08:49:30.705Z,1367.00
2023-04-20T08:50:30.660Z,1374.00
2023-04-20T08:51:30.722Z,1383.00
2023-04-20T08:52:30.620Z,1392.00
2023-04-20T08:53:30.624Z,1420.00
2023-04-20T08:54:30.649Z,1424.00
2023-04-20T08:55:30.626Z,1430.00
2023-04-20T08:56:30.645Z,1427.00
2023-04-20T08:57:30.589Z,1422.00
2023-04-20T08:58:30.606Z,1422.00
2023-04-20T08:59:30.578Z,1414.00
2023-04-20T09:00:30.567Z,1445.00
2023-04-20T09:01:35.570Z,1430.00
2023-04-20T09:02:31.914Z,1431.00
2023-04-20T09:03:30.635Z,1435.00
2023-04-20T09:04:30.772Z,1432.00
2023-04-20T09:05:30.608Z,1439.00
2023-04-20T09:06:30.561Z,1450.00
2023-04-20T09:07:30.524Z,1476.00
2023-04-20T09:08:30.493Z,1510.00
2023-04-20T09:09:30.507Z,1526.00
2023-04-20T09:10:30.511Z,1531.00
2023-04-20T09:11:30.522Z,1533.00
2023-04-20T09:12:30.455Z,1535.00
2023-04-20T09:13:30.438Z,1542.00
2023-04-20T09:14:30.420Z,1542.00
2023-04-20T09:15:30.396Z,1546.00
2023-04-20T09:16:30.468Z,1547.00
2023-04-20T09:17:30.420Z,1547.00
2023-04-20T09:18:30.372Z,1561.00
2023-04-20T09:19:30.351Z,1569.00
2023-04-20T09:20:30.356Z,1567.00
2023-04-20T09:21:30.335Z,1568.00
2023-04-20T09:22:30.328Z,1569.00
2023-04-20T09:23:30.329Z,1568.00
2023-04-20T09:24:30.286Z,1567.00
2023-04-20T09:25:30.259Z,1545.00
2023-04-20T09:26:30.284Z,1517.00
2023-04-20T09:27:30.256Z,1499.00
2023-04-20T09:28:30.243Z,1500.00
2023-04-20T09:29:30.375Z,1483.00
2023-04-20T09:30:30.204Z,1495.00
2023-04-20T09:31:30.266Z,1473.00
2023-04-20T09:32:30.221Z,1456.00
2023-04-20T09:33:30.189Z,1441.00
2023-04-20T09:34:30.288Z,1437.00
2023-04-20T09:35:30.190Z,1435.00
2023-04-20T09:36:30.165Z,1429.00
2023-04-20T09:37:30.154Z,1414.00
2023-04-20T09:38:30.179Z,1424.00
2023-04-20T09:39:30.603Z,1380.00
2023-04-20T09:40:30.994Z,1395.00
2023-04-20T09:41:30.406Z,1372.00
2023-04-20T09:42:30.418Z,1372.00
2023-04-20T09:43:30.480Z,1377.00
2023-04-20T09:44:30.546Z,1355.00
2023-04-20T09:45:30.599Z,1330.00
2023-04-20T09:46:30.721Z,1325.00
2023-04-20T09:47:30.740Z,1317.00
2023-04-20T09:48:32.167Z,1305.00
2023-04-20T09:49:30.791Z,1287.00
2023-04-20T09:50:38.512Z,1284.00
2023-04-20T09:51:31.777Z,1285.00
2023-04-20T09:52:30.768Z,1289.00
2023-04-20T09:53:30.763Z,1295.00
2023-04-20T09:54:30.861Z,1310.00
2023-04-20T09:55:30.756Z,1320.00
2023-04-20T09:56:30.828Z,1310.00
2023-04-20T09:57:30.750Z,1308.00
2023-04-20T09:58:30.765Z,1309.00
2023-04-20T09:59:30.736Z,1309.00
2023-04-20T10:00:30.754Z,1309.00
2023-04-20T10:01:30.738Z,1310.00
2023-04-20T10:02:30.794Z,1312.00
2023-04-20T10:03:30.979Z,1317.00
2023-04-20T10:04:30.856Z,1315.00
2023-04-20T10:05:30.691Z,1311.00
2023-04-20T10:06:30.687Z,1299.00
2023-04-20T10:07:30.719Z,1286.00
2023-04-20T10:08:30.665Z,1282.00
2023-04-20T10:09:30.688Z,1275.00
2023-04-20T10:10:30.699Z,1290.00
2023-04-20T10:11:40.599Z,1276.00
2023-04-20T10:12:31.663Z,1277.00
2023-04-20T10:13:30.628Z,1277.00
2023-04-20T10:14:30.607Z,1266.00
2023-04-20T10:15:30.594Z,1268.00
2023-04-20T10:16:30.622Z,1261.00
2023-04-20T10:17:30.678Z,1247.00
2023-04-20T10:18:30.649Z,1248.00
2023-04-20T10:19:30.646Z,1249.00
2023-04-20T10:20:30.536Z,1248.00
2023-04-20T10:21:30.544Z,1248.00
2023-04-20T10:22:30.747Z,1233.00
2023-04-20T10:23:30.524Z,1252.00
2023-04-20T10:24:30.525Z,1222.00
2023-04-20T10:25:30.471Z,1213.00
2023-04-20T10:26:30.490Z,1220.00
2023-04-20T10:27:30.481Z,1236.00
2023-04-20T10:28:30.440Z,1243.00
2023-04-20T10:29:30.448Z,1235.00
2023-04-20T10:30:30.452Z,1235.00
2023-04-20T10:31:30.455Z,1236.00
2023-04-20T10:32:30.426Z,1252.00
2023-04-20T10:33:30.467Z,1255.00
2023-04-20T10:34:30.388Z,1270.00
2023-04-20T10:35:30.376Z,1260.00
2023-04-20T10:36:30.387Z,1259.00
2023-04-20T10:37:30.390Z,1253.00
2023-04-20T10:38:30.558Z,1268.00
2023-04-20T10:39:30.365Z,1254.00
2023-04-20T10:40:30.333Z,1270.00
2023-04-20T10:41:30.333Z,1252.00
2023-04-20T10:42:30.368Z,1250.00
2023-04-20T10:43:30.342Z,1276.00
2023-04-20T10:44:30.341Z,1260.00
2023-04-20T10:45:30.319Z,1255.00
2023-04-20T10:46:30.325Z,1250.00
2023-04-20T10:47:30.407Z,1228.00
2023-04-20T10:48:30.276Z,1238.00
2023-04-20T10:49:30.278Z,1233.00
2023-04-20T10:50:30.338Z,1244.00
2023-04-20T10:51:30.243Z,1254.00
2023-04-20T10:52:30.279Z,1253.00
2023-04-20T10:53:30.280Z,1242.00
2023-04-20T10:54:30.334Z,1253.00
2023-04-20T10:55:30.316Z,1234.00
2023-04-20T10:56:30.312Z,1231.00
2023-04-20T10:57:30.309Z,1239.00
2023-04-20T10:58:30.329Z,1234.00
2023-04-20T10:59:30.362Z,1212.00
2023-04-20T11:00:30.331Z,1225.00
2023-04-20T11:01:30.391Z,1212.00
2023-04-20T11:02:30.534Z,1217.00
2023-04-20T11:03:30.591Z,1208.00
2023-04-20T11:04:30.520Z,1210.00
2023-04-20T11:05:30.577Z,1230.00
2023-04-20T11:06:30.422Z,1222.00
2023-04-20T11:07:30.429Z,1222.00
2023-04-20T11:08:30.372Z,1212.00
2023-04-20T11:09:30.420Z,1223.00
2023-04-20T11:10:30.376Z,1213.00
2023-04-20T11:11:30.404Z,1214.00
2023-04-20T11:12:30.348Z,1216.00
2023-04-20T11:13:30.337Z,1214.00
2023-04-20T11:14:30.372Z,1204.00
2023-04-20T11:15:30.446Z,1206.00
2023-04-20T11:16:44.282Z,1215.00
2023-04-20T11:17:31.469Z,1216.00
2023-04-20T11:18:30.291Z,1217.00
2023-04-20T11:19:30.329Z,1216.00
2023-04-20T11:20:30.298Z,1204.00
2023-04-20T11:21:30.284Z,1213.00
2023-04-20T11:22:30.332Z,1181.00
2023-04-20T11:23:30.228Z,1178.00
2023-04-20T11:24:30.511Z,1186.00
2023-04-20T11:25:30.277Z,1173.00
2023-04-20T11:26:30.313Z,1167.00
2023-04-20T11:27:30.202Z,1128.00
2023-04-20T11:28:30.204Z,1114.00
2023-04-20T11:29:30.285Z,1108.00
2023-04-20T11:30:30.156Z,1078.00
2023-04-20T11:31:30.280Z,1085.00
2023-04-20T11:32:30.302Z,1050.00
2023-04-20T11:33:30.157Z,1051.00
2023-04-20T11:34:30.120Z,1052.00
2023-04-20T11:35:30.120Z,1059.00
2023-04-20T11:36:30.224Z,1077.00
2023-04-20T11:37:30.065Z,1084.00
2023-04-20T11:38:30.077Z,1100.00
2023-04-20T11:39:30.075Z,1086.00
2023-04-20T11:40:30.031Z,1100.00
2023-04-20T11:41:30.037Z,1061.00
2023-04-20T11:42:30.048Z,1074.00
2023-04-20T11:43:30.020Z,1072.00
2023-04-20T11:44:30.034Z,1081.00
2023-04-20T11:45:30.010Z,1078.00
2023-04-20T11:46:30.056Z,1085.00
2023-04-20T11:47:29.999Z,1078.00
2023-04-20T11:48:29.919Z,1068.00
2023-04-20T11:49:29.931Z,1067.00
2023-04-20T11:50:29.898Z,1048.00
2023-04-20T11:51:29.918Z,1006.00
2023-04-20T11:52:29.871Z,1025.00
2023-04-20T11:53:29.881Z,1004.00
2023-04-20T11:54:29.890Z,980.00
2023-04-20T11:55:29.878Z,978.00
2023-04-20T11:56:29.876Z,1015.00
2023-04-20T11:57:29.878Z,997.00
2023-04-20T11:58:29.890Z,957.00
2023-04-20T11:59:29.888Z,1004.00
2023-04-20T12:00:29.837Z,1007.00
2023-04-20T12:01:29.847Z,1014.00
2023-04-20T12:02:29.924Z,985.00
2023-04-20T12:03:30.028Z,995.00
2023-04-20T12:04:30.080Z,967.00
2023-04-20T12:05:29.949Z,1007.00
2023-04-20T12:06:29.830Z,990.00
2023-04-20T12:07:29.803Z,951.00
2023-04-20T12:08:29.783Z,968.00
2023-04-20T12:09:29.793Z,929.00
2023-04-20T12:10:29.790Z,918.00
2023-04-20T12:11:29.758Z,923.00
2023-04-20T12:12:29.753Z,938.00
2023-04-20T12:13:29.749Z,933.00
2023-04-20T12:14:29.763Z,923.00
2023-04-20T12:15:29.740Z,916.00
2023-04-20T12:16:29.792Z,883.00